createdAt,value
2022-12-01T00:00:19.442Z,23.50
2022-12-01T00:03:11.538Z,20.40
2022-12-01T00:05:43.503Z,21.10
2022-12-01T00:08:15.379Z,19.60
2022-12-01T00:10:47.640Z,21.30
2022-12-01T00:13:19.680Z,21.70
2022-12-01T00:15:51.464Z,23.70
2022-12-01T00:18:23.227Z,22.60
2022-12-01T00:20:56.187Z,22.00
2022-12-01T00:23:27.967Z,22.10
2022-12-01T00:26:05.144Z,20.50
2022-12-01T00:28:36.902Z,22.70
2022-12-01T00:31:11.947Z,20.60
2022-12-01T00:33:43.791Z,24.30
2022-12-01T00:36:16.082Z,20.90
2022-12-01T00:38:48.009Z,21.60
2022-12-01T00:41:20.076Z,22.70
2022-12-01T00:43:51.975Z,21.90
2022-12-01T00:46:24.791Z,25.10
2022-12-01T00:48:56.813Z,25.30
2022-12-01T00:51:28.864Z,24.50
2022-12-01T00:54:00.617Z,24.90
2022-12-01T00:56:32.354Z,23.50
2022-12-01T00:59:04.705Z,24.70
2022-12-01T01:01:36.567Z,22.70
2022-12-01T01:04:08.671Z,23.50
2022-12-01T01:06:40.418Z,25.20
2022-12-01T01:09:13.047Z,23.90
2022-12-01T01:11:45.343Z,26.40
2022-12-01T01:14:17.150Z,25.60
2022-12-01T01:16:49.074Z,25.70
2022-12-01T01:19:20.846Z,24.60
2022-12-01T01:21:52.567Z,23.80
2022-12-01T01:24:24.304Z,21.20
2022-12-01T01:26:56.100Z,23.20
2022-12-01T01:29:28.466Z,23.80
2022-12-01T01:32:00.211Z,24.50
2022-12-01T01:34:32.159Z,25.00
2022-12-01T01:37:03.932Z,25.40
2022-12-01T01:39:35.849Z,24.20
2022-12-01T01:42:07.795Z,23.80
2022-12-01T01:44:56.675Z,21.70
2022-12-01T01:47:33.333Z,21.80
2022-12-01T01:50:09.320Z,19.60
2022-12-01T01:52:44.568Z,21.20
2022-12-01T01:55:16.869Z,18.80
2022-12-01T01:57:48.929Z,20.60
2022-12-01T02:00:22.944Z,19.00
2022-12-01T02:02:57.926Z,21.00
2022-12-01T02:05:34.013Z,21.30
2022-12-01T02:08:12.389Z,20.20
2022-12-01T02:13:34.945Z,18.70
2022-12-01T02:16:16.014Z,19.60
2022-12-01T02:18:56.439Z,18.60
2022-12-01T02:21:35.174Z,18.40
2022-12-01T02:24:26.979Z,19.80
2022-12-01T02:27:06.126Z,17.90
2022-12-01T02:29:57.401Z,20.80
2022-12-01T02:32:35.470Z,20.00
2022-12-01T02:35:16.327Z,20.90
2022-12-01T02:37:58.096Z,21.20
2022-12-01T02:40:35.961Z,20.30
2022-12-01T02:43:15.376Z,18.70
2022-12-01T02:45:53.102Z,20.30
2022-12-01T02:48:29.571Z,18.00
2022-12-01T02:51:05.571Z,21.70
2022-12-01T02:53:37.514Z,19.70
2022-12-01T02:56:13.475Z,19.40
2022-12-01T02:58:46.021Z,19.80
2022-12-01T03:01:32.417Z,21.30
2022-12-01T03:04:30.594Z,21.50
2022-12-01T03:09:47.986Z,20.60
2022-12-01T03:12:28.367Z,19.40
2022-12-01T03:15:08.138Z,20.00
2022-12-01T03:17:47.016Z,17.20
2022-12-01T03:20:26.279Z,19.40
2022-12-01T03:23:02.348Z,18.30
2022-12-01T03:25:35.321Z,18.50
2022-12-01T03:28:24.881Z,18.90
2022-12-01T03:31:00.614Z,19.80
2022-12-01T03:33:37.880Z,19.80
2022-12-01T03:36:15.294Z,19.70
2022-12-01T03:38:53.117Z,18.50
2022-12-01T03:41:29.326Z,18.00
2022-12-01T03:44:06.579Z,18.40
2022-12-01T03:46:48.809Z,18.80
2022-12-01T03:49:21.774Z,17.00
2022-12-01T03:52:03.317Z,18.90
2022-12-01T03:54:50.233Z,19.00
2022-12-01T03:57:26.876Z,18.50
2022-12-01T03:59:59.091Z,22.80
2022-12-01T04:02:31.089Z,20.10
2022-12-01T04:05:05.645Z,20.20
2022-12-01T04:07:37.846Z,21.40
2022-12-01T04:10:11.137Z,18.30
2022-12-01T04:12:43.121Z,18.40
2022-12-01T04:15:16.784Z,18.30
2022-12-01T04:17:49.063Z,16.40
2022-12-01T04:20:21.435Z,19.90
2022-12-01T04:22:53.307Z,18.80
2022-12-01T04:25:25.099Z,21.40
2022-12-01T04:27:57.116Z,20.10
2022-12-01T04:30:29.168Z,22.50
2022-12-01T04:33:01.046Z,18.10
2022-12-01T04:35:32.928Z,22.10
2022-12-01T04:38:04.786Z,21.10
2022-12-01T04:40:36.642Z,20.40
2022-12-01T04:43:08.578Z,18.50
2022-12-01T04:45:40.918Z,19.50
2022-12-01T04:48:13.127Z,18.90
2022-12-01T04:50:44.934Z,21.30
2022-12-01T04:53:17.003Z,21.60
2022-12-01T04:55:48.965Z,21.90
2022-12-01T04:58:21.041Z,21.10
2022-12-01T05:00:53.006Z,24.60
2022-12-01T05:03:24.987Z,22.40
2022-12-01T05:06:04.744Z,19.70
2022-12-01T05:08:36.686Z,20.30
2022-12-01T05:11:11.339Z,20.40
2022-12-01T05:13:44.900Z,20.30
2022-12-01T05:16:19.047Z,20.00
2022-12-01T05:19:20.244Z,22.30
2022-12-01T05:21:52.808Z,21.90
2022-12-01T05:24:24.844Z,23.20
2022-12-01T05:26:57.119Z,23.00
2022-12-01T05:29:29.137Z,21.50
2022-12-01T05:32:01.514Z,21.10
2022-12-01T05:34:33.462Z,19.80
2022-12-01T05:37:05.960Z,22.10
2022-12-01T05:39:37.779Z,22.60
2022-12-01T05:42:09.693Z,19.70
2022-12-01T05:44:41.453Z,22.60
2022-12-01T05:47:13.486Z,21.40
2022-12-01T05:49:45.488Z,22.40
2022-12-01T05:52:17.429Z,22.20
2022-12-01T05:54:49.518Z,23.30
2022-12-01T05:57:21.413Z,20.30
2022-12-01T05:59:53.146Z,20.00
2022-12-01T06:02:26.884Z,19.30
2022-12-01T06:04:58.932Z,20.00
2022-12-01T06:07:31.364Z,20.30
2022-12-01T06:10:04.031Z,20.00
2022-12-01T06:12:36.014Z,20.30
2022-12-01T06:15:11.750Z,20.00
2022-12-01T06:17:43.718Z,22.90
2022-12-01T06:20:15.963Z,23.60
2022-12-01T06:22:48.315Z,20.80
2022-12-01T06:25:20.451Z,21.90
2022-12-01T06:27:56.377Z,20.80
2022-12-01T06:30:28.381Z,20.20
2022-12-01T06:33:00.404Z,20.30
2022-12-01T06:35:32.461Z,19.50
2022-12-01T06:38:04.238Z,21.40
2022-12-01T06:40:36.404Z,19.10
2022-12-01T06:43:08.326Z,21.50
2022-12-01T06:45:40.398Z,20.00
2022-12-01T06:48:12.962Z,23.90
2022-12-01T06:50:46.135Z,21.90
2022-12-01T06:53:18.018Z,21.10
2022-12-01T06:55:50.046Z,20.00
2022-12-01T06:58:22.003Z,20.30
2022-12-01T07:00:54.741Z,20.40
2022-12-01T07:03:26.500Z,21.40
2022-12-01T07:06:02.936Z,24.10
2022-12-01T07:08:35.175Z,23.10
2022-12-01T07:11:09.062Z,23.50
2022-12-01T07:13:41.317Z,25.30
2022-12-01T07:16:13.989Z,22.80
2022-12-01T07:18:45.804Z,23.30
2022-12-01T07:21:18.531Z,21.20
2022-12-01T07:23:50.300Z,20.90
2022-12-01T07:26:22.530Z,22.30
2022-12-01T07:28:55.510Z,23.50
2022-12-01T07:31:27.300Z,23.90
2022-12-01T07:33:59.332Z,22.70
2022-12-01T07:36:31.240Z,22.80
2022-12-01T07:39:05.790Z,25.40
2022-12-01T07:41:38.102Z,23.20
2022-12-01T07:44:10.392Z,22.90
2022-12-01T07:46:42.400Z,23.90
2022-12-01T07:49:15.644Z,22.60
2022-12-01T07:51:48.119Z,21.20
2022-12-01T07:54:21.307Z,22.90
2022-12-01T07:56:53.260Z,24.30
2022-12-01T07:59:25.094Z,24.80
2022-12-01T08:01:57.013Z,25.00
2022-12-01T08:04:28.989Z,23.10
2022-12-01T08:07:00.850Z,23.20
2022-12-01T08:09:32.826Z,23.50
2022-12-01T08:12:04.675Z,22.90
2022-12-01T08:14:36.710Z,21.20
2022-12-01T08:17:09.140Z,23.10
2022-12-01T08:19:41.255Z,23.00
2022-12-01T08:22:12.994Z,22.90
2022-12-01T08:24:44.842Z,22.30
2022-12-01T08:27:16.648Z,22.90
2022-12-01T08:29:48.778Z,21.40
2022-12-01T08:32:21.213Z,23.80
2022-12-01T08:34:53.716Z,25.30
2022-12-01T08:37:26.010Z,25.50
2022-12-01T08:39:57.921Z,23.60
2022-12-01T08:42:29.825Z,22.70
2022-12-01T08:45:01.843Z,20.60
2022-12-01T08:47:33.661Z,21.50
2022-12-01T08:50:06.466Z,21.00
2022-12-01T08:52:38.894Z,21.80
2022-12-01T08:55:12.363Z,22.30
2022-12-01T08:57:44.285Z,20.50
2022-12-01T09:00:17.559Z,21.20
2022-12-01T09:02:49.664Z,23.10
2022-12-01T09:05:22.329Z,22.60
2022-12-01T09:08:20.644Z,22.60
2022-12-01T09:10:55.181Z,21.40
2022-12-01T09:13:28.394Z,23.90
2022-12-01T09:16:02.943Z,18.50
2022-12-01T09:18:35.433Z,20.30
2022-12-01T09:21:15.043Z,21.60
2022-12-01T09:23:47.043Z,20.70
2022-12-01T09:26:21.236Z,24.20
2022-12-01T09:28:56.597Z,22.30
2022-12-01T09:31:29.127Z,22.50
2022-12-01T09:34:03.044Z,22.80
2022-12-01T09:36:36.727Z,24.00
2022-12-01T09:39:13.134Z,21.20
2022-12-01T09:41:48.738Z,22.00
2022-12-01T09:44:40.988Z,22.80
2022-12-01T09:47:19.463Z,22.00
2022-12-01T09:50:00.738Z,23.00
2022-12-01T09:52:41.301Z,22.10
2022-12-01T09:55:17.431Z,28.10
2022-12-01T09:57:53.085Z,24.60
2022-12-01T10:00:27.699Z,25.90
2022-12-01T10:03:05.901Z,25.30
2022-12-01T10:06:10.431Z,25.20
2022-12-01T10:08:40.254Z,26.00
2022-12-01T10:11:19.657Z,23.90
2022-12-01T10:13:51.533Z,21.70
2022-12-01T10:16:28.933Z,23.00
2022-12-01T10:19:06.713Z,26.40
2022-12-01T10:21:54.864Z,25.60
2022-12-01T10:27:22.504Z,24.90
2022-12-01T10:30:04.058Z,26.10
2022-12-01T10:32:45.814Z,21.80
2022-12-01T10:35:20.716Z,24.50
2022-12-01T10:37:56.422Z,24.60
2022-12-01T10:40:29.785Z,25.30
2022-12-01T10:43:02.409Z,27.00
2022-12-01T10:45:45.703Z,25.20
2022-12-01T10:48:19.539Z,27.50
2022-12-01T10:50:53.924Z,30.90
2022-12-01T10:53:32.808Z,29.60
2022-12-01T10:56:10.983Z,29.40
2022-12-01T10:58:49.180Z,26.60
2022-12-01T11:01:26.521Z,23.80
2022-12-01T11:04:01.930Z,25.00
2022-12-01T11:06:34.130Z,24.60
2022-12-01T11:09:09.388Z,24.70
2022-12-01T11:11:42.841Z,25.40
2022-12-01T11:14:22.326Z,24.40
2022-12-01T11:16:55.214Z,26.40
2022-12-01T11:19:33.571Z,26.30
2022-12-01T11:22:23.884Z,24.30
2022-12-01T11:25:05.434Z,24.40
2022-12-01T11:27:46.484Z,26.60
2022-12-01T11:30:30.915Z,21.10
2022-12-01T11:33:05.492Z,22.00
2022-12-01T11:35:39.313Z,24.70
2022-12-01T11:38:30.755Z,22.00
2022-12-01T11:41:02.910Z,26.70
2022-12-01T11:43:38.428Z,27.90
2022-12-01T11:46:11.737Z,25.50
2022-12-01T11:48:58.222Z,23.30
2022-12-01T11:51:37.306Z,23.60
2022-12-01T11:54:16.011Z,23.80
2022-12-01T11:56:56.153Z,23.90
2022-12-01T11:59:36.375Z,27.50
2022-12-01T12:02:35.894Z,25.20
2022-12-01T12:05:39.685Z,26.00
2022-12-01T12:08:22.013Z,25.80
2022-12-01T12:11:03.371Z,26.40
2022-12-01T12:14:01.934Z,28.30
2022-12-01T12:16:46.287Z,25.70
2022-12-01T12:20:06.691Z,27.80
2022-12-01T12:22:50.873Z,26.00
2022-12-01T12:25:33.529Z,28.60
2022-12-01T12:28:23.913Z,28.50
2022-12-01T12:31:05.264Z,28.80
2022-12-01T12:34:01.583Z,28.00
2022-12-01T12:36:44.516Z,28.60
2022-12-01T12:39:31.844Z,29.20
2022-12-01T12:42:08.181Z,28.80
2022-12-01T12:44:50.560Z,28.10
2022-12-01T12:47:37.631Z,30.50
2022-12-01T12:50:24.700Z,34.30
2022-12-01T12:53:03.614Z,38.90
2022-12-01T12:55:41.167Z,37.70
2022-12-01T12:58:21.238Z,36.40
2022-12-01T13:00:59.922Z,30.00
2022-12-01T13:03:40.133Z,31.20
2022-12-01T13:06:19.437Z,35.20
2022-12-01T13:08:56.182Z,37.00
2022-12-01T13:11:33.173Z,35.10
2022-12-01T13:14:07.774Z,34.90
2022-12-01T13:16:42.443Z,35.30
2022-12-01T13:19:18.066Z,36.60
2022-12-01T13:21:52.940Z,31.70
2022-12-01T13:24:29.689Z,32.40
2022-12-01T13:27:04.695Z,34.50
2022-12-01T13:29:43.957Z,32.30
2022-12-01T13:32:31.538Z,29.30
2022-12-01T13:35:06.509Z,29.70
2022-12-01T13:37:39.832Z,28.80
2022-12-01T13:40:21.205Z,31.60
2022-12-01T13:43:08.586Z,32.00
2022-12-01T13:45:43.676Z,34.20
2022-12-01T13:48:30.256Z,34.40
2022-12-01T13:51:04.129Z,28.90
2022-12-01T13:53:37.969Z,30.10
2022-12-01T13:56:39.637Z,31.10
2022-12-01T13:59:41.078Z,28.70
2022-12-01T14:02:20.860Z,29.60
2022-12-01T14:04:52.793Z,27.90
2022-12-01T14:07:34.664Z,30.00
2022-12-01T14:10:27.118Z,31.20
2022-12-01T14:13:04.049Z,32.50
2022-12-01T14:15:42.436Z,35.50
2022-12-01T14:18:33.134Z,33.70
2022-12-01T14:21:07.941Z,34.60
2022-12-01T14:23:59.455Z,35.20
2022-12-01T14:26:32.537Z,34.60
2022-12-01T14:29:24.896Z,35.20
2022-12-01T14:32:23.777Z,37.10
2022-12-01T14:35:06.447Z,36.10
2022-12-01T14:37:45.232Z,41.20
2022-12-01T14:40:25.253Z,34.40
2022-12-01T14:43:18.506Z,35.90
2022-12-01T14:45:58.296Z,38.60
2022-12-01T14:48:38.490Z,33.70
2022-12-01T14:51:23.380Z,38.70
2022-12-01T14:53:58.189Z,36.00
2022-12-01T14:56:31.318Z,34.40
2022-12-01T14:59:14.804Z,38.80
2022-12-01T15:01:46.644Z,37.30
2022-12-01T15:04:19.078Z,37.10
2022-12-01T15:06:57.100Z,32.60
2022-12-01T15:09:34.117Z,32.50
2022-12-01T15:12:25.133Z,34.70
2022-12-01T15:14:56.931Z,34.20
2022-12-01T15:17:34.546Z,34.40
2022-12-01T15:20:27.572Z,33.60
2022-12-01T15:23:00.070Z,34.80
2022-12-01T15:25:35.692Z,33.10
2022-12-01T15:28:15.657Z,32.30
2022-12-01T15:30:50.707Z,34.20
2022-12-01T15:33:28.413Z,34.60
2022-12-01T15:36:03.934Z,36.70
2022-12-01T15:38:38.939Z,35.60
2022-12-01T15:41:29.158Z,37.20
2022-12-01T15:44:03.692Z,33.80
2022-12-01T15:46:36.521Z,34.60
2022-12-01T15:49:19.874Z,35.00
2022-12-01T15:51:53.034Z,36.10
2022-12-01T15:54:27.459Z,33.80
2022-12-01T15:57:01.041Z,34.50
2022-12-01T15:59:40.055Z,48.40
2022-12-01T16:02:27.938Z,43.60
2022-12-01T16:05:05.822Z,36.10
2022-12-01T16:08:11.439Z,35.10
2022-12-01T16:10:34.862Z,37.40
2022-12-01T16:13:46.829Z,37.90
2022-12-01T16:16:36.924Z,37.40
2022-12-01T16:19:26.488Z,35.10
2022-12-01T16:22:01.645Z,35.70
2022-12-01T16:24:36.672Z,40.20
2022-12-01T16:27:18.552Z,42.10
2022-12-01T16:29:53.291Z,30.20
2022-12-01T16:32:29.013Z,31.00
2022-12-01T16:35:01.153Z,26.50
2022-12-01T16:37:33.272Z,27.00
2022-12-01T16:40:08.266Z,34.10
2022-12-01T16:42:40.478Z,33.40
2022-12-01T16:45:15.102Z,26.30
2022-12-01T16:47:48.680Z,30.10
2022-12-01T16:50:23.028Z,30.00
2022-12-01T16:52:54.816Z,28.50
2022-12-01T16:55:33.175Z,29.30
2022-12-01T17:00:35.371Z,31.90
2022-12-01T17:03:07.953Z,29.10
2022-12-01T17:05:40.460Z,35.80
2022-12-01T17:08:14.492Z,29.40
2022-12-01T17:10:49.578Z,27.90
2022-12-01T17:13:24.141Z,30.10
2022-12-01T17:15:56.943Z,28.70
2022-12-01T17:18:28.742Z,27.20
2022-12-01T17:21:02.431Z,24.00
2022-12-01T17:23:34.698Z,25.40
2022-12-01T17:26:10.077Z,27.30
2022-12-01T17:28:42.650Z,26.60
2022-12-01T17:31:14.859Z,27.30
2022-12-01T17:33:46.693Z,29.30
2022-12-01T17:36:18.778Z,30.80
2022-12-01T17:38:51.049Z,23.30
2022-12-01T17:41:25.613Z,23.30
2022-12-01T17:43:57.501Z,24.60
2022-12-01T17:46:30.217Z,24.50
2022-12-01T17:49:08.704Z,24.40
2022-12-01T17:51:40.978Z,22.20
2022-12-01T17:54:13.177Z,27.10
2022-12-01T17:56:45.892Z,25.90
2022-12-01T17:59:18.857Z,26.80
2022-12-01T18:01:50.619Z,22.60
2022-12-01T18:04:22.456Z,21.30
2022-12-01T18:06:54.758Z,20.60
2022-12-01T18:09:26.614Z,21.00
2022-12-01T18:11:58.680Z,23.50
2022-12-01T18:14:30.603Z,22.40
2022-12-01T18:17:02.522Z,20.20
2022-12-01T18:19:34.348Z,22.00
2022-12-01T18:22:06.220Z,22.70
2022-12-01T18:24:38.127Z,24.40
2022-12-01T18:27:10.108Z,24.30
2022-12-01T18:29:42.246Z,24.30
2022-12-01T18:32:13.971Z,21.10
2022-12-01T18:34:46.142Z,23.20
2022-12-01T18:37:18.275Z,20.50
2022-12-01T18:39:50.240Z,20.80
2022-12-01T18:42:22.033Z,20.50
2022-12-01T18:44:53.794Z,22.30
2022-12-01T18:47:25.560Z,19.10
2022-12-01T18:49:57.470Z,22.10
2022-12-01T18:52:29.260Z,19.30
2022-12-01T18:55:01.088Z,27.80
2022-12-01T18:57:33.012Z,23.50
2022-12-01T19:00:06.165Z,20.60
2022-12-01T19:02:38.006Z,19.00
2022-12-01T19:05:11.223Z,20.10
2022-12-01T19:07:43.027Z,23.70
2022-12-01T19:10:15.183Z,20.20
2022-12-01T19:12:47.005Z,23.40
2022-12-01T19:15:18.871Z,24.20
2022-12-01T19:17:51.357Z,22.70
2022-12-01T19:20:23.397Z,21.90
2022-12-01T19:22:55.190Z,25.30
2022-12-01T19:25:27.078Z,19.70
2022-12-01T19:27:59.047Z,22.60
2022-12-01T19:30:31.053Z,19.50
2022-12-01T19:33:03.079Z,19.00
2022-12-01T19:35:35.119Z,20.10
2022-12-01T19:38:06.890Z,19.00
2022-12-01T19:40:42.176Z,19.70
2022-12-01T19:43:14.516Z,23.40
2022-12-01T19:45:46.479Z,21.00
2022-12-01T19:48:18.393Z,20.40
2022-12-01T19:50:50.189Z,21.10
2022-12-01T19:53:21.994Z,23.10
2022-12-01T19:55:54.352Z,25.20
2022-12-01T19:58:26.590Z,22.60
2022-12-01T20:01:05.529Z,23.10
2022-12-01T20:03:37.868Z,21.60
2022-12-01T20:06:12.741Z,20.80
2022-12-01T20:08:46.782Z,20.60
2022-12-01T20:11:19.026Z,22.50
2022-12-01T20:13:51.548Z,21.40
2022-12-01T20:16:25.310Z,20.90
2022-12-01T20:18:57.494Z,24.10
2022-12-01T20:21:32.952Z,22.80
2022-12-01T20:24:07.333Z,23.50
2022-12-01T20:26:42.293Z,22.40
2022-12-01T20:29:17.644Z,21.90
2022-12-01T20:31:52.911Z,20.30
2022-12-01T20:34:27.813Z,23.90
2022-12-01T20:37:00.439Z,21.50
2022-12-01T20:39:34.741Z,21.00
2022-12-01T20:42:06.795Z,27.20
2022-12-01T20:44:40.317Z,23.70
2022-12-01T20:47:14.770Z,22.70
2022-12-01T20:49:46.589Z,20.10
2022-12-01T20:52:18.384Z,22.30
2022-12-01T20:54:50.443Z,23.20
2022-12-01T20:57:22.530Z,19.70
2022-12-01T20:59:54.721Z,19.90
2022-12-01T21:02:26.650Z,20.00
2022-12-01T21:04:59.325Z,20.80
2022-12-01T21:07:31.426Z,18.80
2022-12-01T21:10:05.217Z,18.80
2022-12-01T21:12:57.014Z,19.50
2022-12-01T21:15:31.312Z,19.60
2022-12-01T21:18:09.553Z,21.30
2022-12-01T21:20:44.471Z,21.40
2022-12-01T21:23:18.099Z,21.30
2022-12-01T21:25:51.695Z,20.40
2022-12-01T21:28:26.693Z,18.10
2022-12-01T21:31:13.950Z,16.80
2022-12-01T21:33:46.269Z,15.60
2022-12-01T21:36:20.354Z,16.60
2022-12-01T21:38:56.200Z,16.80
2022-12-01T21:41:30.017Z,16.40
2022-12-01T21:44:17.352Z,16.20
2022-12-01T21:46:51.297Z,16.90
2022-12-01T21:49:32.008Z,16.50
2022-12-01T21:52:08.146Z,17.20
2022-12-01T21:54:39.925Z,18.10
2022-12-01T21:57:30.293Z,16.10
2022-12-01T22:00:25.633Z,16.90
2022-12-01T22:03:33.942Z,15.10
2022-12-01T22:06:31.996Z,16.00
2022-12-01T22:11:35.470Z,14.20
2022-12-01T22:14:16.480Z,15.40
2022-12-01T22:16:54.112Z,16.50
2022-12-01T22:19:32.083Z,15.30
2022-12-01T22:22:16.687Z,15.80
2022-12-01T22:24:50.261Z,15.80
2022-12-01T22:27:34.008Z,14.20
2022-12-01T22:30:19.529Z,15.40
2022-12-01T22:32:56.946Z,14.60
2022-12-01T22:35:37.623Z,15.50
2022-12-01T22:38:36.229Z,15.30
2022-12-01T22:41:12.136Z,14.90
2022-12-01T22:43:51.807Z,15.30
2022-12-01T22:46:30.548Z,15.70
2022-12-01T22:49:13.745Z,15.30
2022-12-01T22:51:49.887Z,16.90
2022-12-01T22:54:33.579Z,17.20
2022-12-01T22:57:33.267Z,16.40
2022-12-01T23:00:17.154Z,15.20
2022-12-01T23:02:50.856Z,15.40
2022-12-01T23:05:27.076Z,15.20
2022-12-01T23:07:59.121Z,15.50
2022-12-01T23:10:35.345Z,14.70
2022-12-01T23:13:20.201Z,15.40
2022-12-01T23:15:54.283Z,17.70
2022-12-01T23:18:29.141Z,15.70
2022-12-01T23:21:01.992Z,16.10
2022-12-01T23:23:35.698Z,15.00
2022-12-01T23:26:09.780Z,14.30
2022-12-01T23:28:42.027Z,14.80
2022-12-01T23:31:13.884Z,15.10
2022-12-01T23:33:45.748Z,13.50
2022-12-01T23:36:20.019Z,16.10
2022-12-01T23:38:54.125Z,16.70
2022-12-01T23:41:35.862Z,13.70
2022-12-01T23:44:19.889Z,17.20
2022-12-01T23:46:53.887Z,14.90
2022-12-01T23:49:30.390Z,15.20
2022-12-01T23:52:03.847Z,15.00
2022-12-01T23:54:38.882Z,13.60
2022-12-01T23:57:19.593Z,12.20
2022-12-01T23:59:55.962Z,14.50
